Impacts TAF Board INFO
FOR SITUATIONAL AWARENESS. NOT TO BE USED FOR FLIGHT PLANNING PURPOSES.
IDs:

KJFK - New York/Kennedy Int, NY, US

Issued at 2351 UTC 13 Dec 2017
Updated at 0037 UTC 14 Dec 2017
Potential Impact None Slight Moderate High
Time<<14/13Z 14/14Z 14/15Z 14/16Z 14/17Z 14/18Z 14/19Z 14/20Z 14/21Z 14/22Z 14/23Z 15/00Z 15/01Z>>
Type PRVL PRVL PRVL PRVL PRVL PRVL PRVL PRVL PRVL PRVL PRVL PRVL PRVL
VIS 2 >6 >6 >6 >6 >6 >6 >6 >6 >6 >6 >6 >6
CIG 10 20 20 60 -- -- -- -- -- -- -- -- --
Cover OVC BKN BKN BKN SCT SCT SCT SCT SCT SCT SCT SCT SCT
FltCat IFR MVFR MVFR VFR VFR VFR VFR VFR VFR VFR VFR VFR VFR
WX -SN -- -- -- -- -- -- -- -- -- -- -- --
WDir 270 300 300 310 310 310 310 310 310 310 310 310 310
WSpd 6 8 8 10 15 15 15 15 15 15 15 15 15
WGst -- -- -- 18 23 23 23 23 23 23 23 23 23

Raw TAF
TAF COR KJFK 132351Z 1400/1506 27018G29KT P6SM SCT100
  FM140300 26014G24KT P6SM BKN070 BKN100
  TEMPO 1403/1406 3SM -SN OVC035
  FM140600 24010G15KT 2SM -SN BKN025 OVC100
  FM140900 22007KT 1SM -SN SCT007 OVC015
  FM141100 27006KT 2SM -SN OVC010
  FM141400 30008KT P6SM BKN020
  FM141600 31010G18KT P6SM BKN060
  FM141700 31015G23KT P6SM SCT100
  FM150300 31010KT P6SM FEW100


METAR Board
Radar Display
Forecast Discussion

FOR SITUATIONAL AWARENESS. NOT TO BE USED FOR FLIGHT PLANNING PURPOSES.